VCV3492 SVMI-MUHA
Flight info
| Callsign | VCV3492 |
|---|---|
| Flight time | N/A |
| Altitude | 40000 |
| Route | MARES1 MARES DCT AVELO UA315 PJG UL220 ABA UL332 UCL HERFO2A |
| Aircraft | A346/H-SDE2E3FGHIJ3J4J5M1RWXY/LB1D1 |
Departure
| Time | 2026-05-07 16:20 |
|---|---|
| Airport | Maiquetía Simón Bolívar International Airport (SVMI) |
Arrival
| Time | N/A |
|---|---|
| Airport | José Martí International Airport (MUHA) |
| Time | Latitude | Longitude | Altitude | Speed | Heading |
|---|---|---|---|---|---|
| 2026-05-07 15:52 | 10.59846 | -67.00458 | 240 ft | 0 kts | 178° |
| 2026-05-07 16:13 | 10.59857 | -67.00459 | 242 ft | 4 kts | 168° |
| 2026-05-07 16:13 | 10.59873 | -67.00466 | 239 ft | 4 kts | 129° |
| 2026-05-07 16:14 | 10.59878 | -67.00482 | 236 ft | 4 kts | 91° |
| 2026-05-07 16:14 | 10.59878 | -67.00501 | 237 ft | 0 kts | 88° |
| 2026-05-07 16:16 | 10.59882 | -67.00486 | 237 ft | 10 kts | 68° |
| 2026-05-07 16:16 | 10.59919 | -67.00380 | 237 ft | 19 kts | 81° |
| 2026-05-07 16:17 | 10.59918 | -67.00237 | 235 ft | 22 kts | 101° |
| 2026-05-07 16:17 | 10.59911 | -67.00069 | 230 ft | 25 kts | 88° |
| 2026-05-07 16:17 | 10.59925 | -66.99944 | 233 ft | 17 kts | 54° |
| 2026-05-07 16:17 | 10.60055 | -66.99919 | 231 ft | 21 kts | 359° |
| 2026-05-07 16:18 | 10.60135 | -66.99842 | 229 ft | 16 kts | 85° |
| 2026-05-07 16:18 | 10.60131 | -66.99708 | 224 ft | 18 kts | 109° |
| 2026-05-07 16:18 | 10.60056 | -66.99667 | 228 ft | 11 kts | 175° |
| 2026-05-07 16:18 | 10.59978 | -66.99661 | 233 ft | 12 kts | 176° |
| 2026-05-07 16:19 | 10.59918 | -66.99666 | 233 ft | 3 kts | 149° |
| 2026-05-07 16:19 | 10.59911 | -66.99618 | 226 ft | 11 kts | 84° |
| 2026-05-07 16:19 | 10.59915 | -66.99593 | 223 ft | 9 kts | 77° |
| 2026-05-07 16:19 | 10.60026 | -66.99157 | 210 ft | 117 kts | 74° |
| 2026-05-07 16:20 | 10.60294 | -66.98043 | 256 ft | 196 kts | 73° |
| 2026-05-07 16:20 | 10.60614 | -66.96615 | 1124 ft | 213 kts | 81° |
| 2026-05-07 16:20 | 10.61053 | -66.95167 | 2266 ft | 215 kts | 60° |
| 2026-05-07 16:20 | 10.62059 | -66.94047 | 3292 ft | 218 kts | 35° |
| 2026-05-07 16:21 | 10.63492 | -66.93467 | 3942 ft | 232 kts | 7° |
| 2026-05-07 16:21 | 10.65145 | -66.93695 | 4548 ft | 251 kts | 340° |
| 2026-05-07 16:21 | 10.66685 | -66.94624 | 5298 ft | 266 kts | 319° |
| 2026-05-07 16:21 | 10.67830 | -66.96132 | 5951 ft | 282 kts | 295° |
| 2026-05-07 16:22 | 10.68438 | -66.98074 | 6717 ft | 293 kts | 284° |
| 2026-05-07 16:22 | 10.68912 | -67.00107 | 7669 ft | 296 kts | 282° |
| 2026-05-07 16:22 | 10.69340 | -67.02164 | 8709 ft | 297 kts | 281° |
| 2026-05-07 16:22 | 10.69760 | -67.04241 | 9640 ft | 303 kts | 281° |
| 2026-05-07 16:23 | 10.70188 | -67.06376 | 10394 ft | 313 kts | 281° |
| 2026-05-07 16:23 | 10.70618 | -67.08601 | 10978 ft | 328 kts | 281° |
| 2026-05-07 16:23 | 10.71079 | -67.10946 | 11469 ft | 346 kts | 285° |
| 2026-05-07 16:23 | 10.72115 | -67.13226 | 11881 ft | 362 kts | 307° |
| 2026-05-07 16:24 | 10.73739 | -67.15249 | 12367 ft | 377 kts | 313° |
| 2026-05-07 16:24 | 10.75525 | -67.17288 | 12848 ft | 392 kts | 314° |
| 2026-05-07 16:24 | 10.77327 | -67.19413 | 13562 ft | 399 kts | 313° |
| 2026-05-07 16:24 | 10.79118 | -67.21601 | 14302 ft | 405 kts | 311° |
| 2026-05-07 16:25 | 10.80887 | -67.23811 | 15040 ft | 408 kts | 311° |
| 2026-05-07 16:25 | 10.82680 | -67.26076 | 15820 ft | 411 kts | 311° |
| 2026-05-07 16:25 | 10.84477 | -67.28353 | 16596 ft | 414 kts | 311° |
| 2026-05-07 16:25 | 10.86291 | -67.30650 | 17366 ft | 417 kts | 310° |
| 2026-05-07 16:26 | 10.88120 | -67.32963 | 18153 ft | 421 kts | 310° |
| 2026-05-07 16:26 | 10.89961 | -67.35295 | 18829 ft | 424 kts | 311° |
| 2026-05-07 16:26 | 10.91819 | -67.37651 | 19484 ft | 427 kts | 311° |
| 2026-05-07 16:26 | 10.93692 | -67.40007 | 20144 ft | 429 kts | 310° |
| 2026-05-07 16:27 | 10.95574 | -67.42385 | 20807 ft | 431 kts | 310° |
| 2026-05-07 16:27 | 10.97441 | -67.44746 | 21439 ft | 434 kts | 309° |
| 2026-05-07 16:27 | 10.99340 | -67.47155 | 22087 ft | 436 kts | 309° |
| 2026-05-07 16:27 | 11.01242 | -67.49565 | 22737 ft | 438 kts | 309° |
| 2026-05-07 16:28 | 11.03162 | -67.51992 | 23323 ft | 441 kts | 309° |
| 2026-05-07 16:28 | 11.05092 | -67.54437 | 23854 ft | 443 kts | 309° |
| 2026-05-07 16:28 | 11.07030 | -67.56888 | 24360 ft | 445 kts | 308° |
| 2026-05-07 16:28 | 11.08970 | -67.59346 | 24898 ft | 446 kts | 308° |
| 2026-05-07 16:29 | 11.10921 | -67.61823 | 25374 ft | 449 kts | 308° |
| 2026-05-07 16:29 | 11.12888 | -67.64321 | 25717 ft | 455 kts | 308° |
| 2026-05-07 16:29 | 11.14883 | -67.66852 | 26084 ft | 460 kts | 308° |
| 2026-05-07 16:29 | 11.16868 | -67.69374 | 26547 ft | 463 kts | 308° |
| 2026-05-07 16:30 | 11.18886 | -67.71940 | 27036 ft | 465 kts | 308° |
| 2026-05-07 16:30 | 11.20920 | -67.74521 | 27498 ft | 467 kts | 308° |
| 2026-05-07 16:30 | 11.22956 | -67.77104 | 28023 ft | 468 kts | 308° |
| 2026-05-07 16:30 | 11.25002 | -67.79702 | 28534 ft | 469 kts | 308° |
| 2026-05-07 16:31 | 11.27051 | -67.82305 | 29022 ft | 471 kts | 308° |
| 2026-05-07 16:31 | 11.29107 | -67.84916 | 29596 ft | 471 kts | 308° |
| 2026-05-07 16:31 | 11.31149 | -67.87511 | 30246 ft | 468 kts | 308° |
| 2026-05-07 16:31 | 11.33183 | -67.90095 | 30835 ft | 465 kts | 308° |
| 2026-05-07 16:32 | 11.35208 | -67.92668 | 31376 ft | 463 kts | 308° |
| 2026-05-07 16:32 | 11.37230 | -67.95239 | 31925 ft | 462 kts | 308° |
| 2026-05-07 16:32 | 11.39215 | -67.97765 | 32452 ft | 461 kts | 308° |
| 2026-05-07 16:32 | 11.41216 | -68.00310 | 32995 ft | 460 kts | 308° |
| 2026-05-07 16:33 | 11.43216 | -68.02862 | 33548 ft | 459 kts | 308° |
| 2026-05-07 16:33 | 11.45204 | -68.05406 | 34086 ft | 457 kts | 307° |
| 2026-05-07 16:33 | 11.47182 | -68.07941 | 34567 ft | 456 kts | 308° |
| 2026-05-07 16:33 | 11.49157 | -68.10474 | 35061 ft | 455 kts | 308° |
| 2026-05-07 16:34 | 11.51129 | -68.13002 | 35574 ft | 453 kts | 308° |
| 2026-05-07 16:34 | 11.53088 | -68.15513 | 36062 ft | 451 kts | 308° |
| 2026-05-07 16:34 | 11.55042 | -68.18020 | 36581 ft | 450 kts | 309° |
| 2026-05-07 16:34 | 11.56978 | -68.20519 | 37100 ft | 448 kts | 310° |
| 2026-05-07 16:35 | 11.58912 | -68.23002 | 37567 ft | 447 kts | 310° |
| 2026-05-07 16:35 | 11.60860 | -68.25491 | 37989 ft | 447 kts | 310° |
| 2026-05-07 16:35 | 11.62782 | -68.27947 | 38370 ft | 447 kts | 310° |
| 2026-05-07 16:35 | 11.64724 | -68.30432 | 38706 ft | 448 kts | 310° |
| 2026-05-07 16:36 | 11.66670 | -68.32924 | 38989 ft | 449 kts | 310° |
| 2026-05-07 16:36 | 11.68622 | -68.35423 | 39240 ft | 450 kts | 310° |
| 2026-05-07 16:36 | 11.70572 | -68.37924 | 39528 ft | 450 kts | 310° |
| 2026-05-07 16:36 | 11.72527 | -68.40432 | 39795 ft | 451 kts | 310° |
| 2026-05-07 16:37 | 11.74485 | -68.42947 | 39997 ft | 451 kts | 310° |
| 2026-05-07 16:37 | 11.78400 | -68.47978 | 40019 ft | 452 kts | 310° |
| 2026-05-07 16:38 | 11.82307 | -68.53003 | 39994 ft | 451 kts | 310° |
| 2026-05-07 16:38 | 11.86223 | -68.58047 | 39999 ft | 454 kts | 310° |
| 2026-05-07 16:39 | 11.90160 | -68.63109 | 40003 ft | 454 kts | 310° |
| 2026-05-07 16:39 | 11.94094 | -68.68169 | 40019 ft | 452 kts | 310° |
| 2026-05-07 16:40 | 11.97999 | -68.73203 | 40019 ft | 451 kts | 310° |
| 2026-05-07 16:40 | 12.01872 | -68.78199 | 40029 ft | 451 kts | 310° |
| 2026-05-07 16:41 | 12.05768 | -68.83223 | 40032 ft | 451 kts | 310° |
| 2026-05-07 16:41 | 12.09669 | -68.88254 | 40034 ft | 451 kts | 310° |
| 2026-05-07 16:42 | 12.13566 | -68.93297 | 40030 ft | 451 kts | 309° |
| 2026-05-07 16:42 | 12.17146 | -68.98592 | 40034 ft | 452 kts | 303° |
| 2026-05-07 16:43 | 12.20186 | -69.04234 | 40039 ft | 454 kts | 298° |
| 2026-05-07 16:43 | 12.22661 | -69.10190 | 40037 ft | 455 kts | 292° |
| 2026-05-07 16:44 | 12.24733 | -69.16326 | 40025 ft | 456 kts | 291° |
| 2026-05-07 16:44 | 12.26777 | -69.22476 | 40017 ft | 457 kts | 291° |
| 2026-05-07 16:45 | 12.28830 | -69.28654 | 40004 ft | 457 kts | 291° |
| 2026-05-07 16:45 | 12.30871 | -69.34797 | 40007 ft | 457 kts | 291° |
| 2026-05-07 16:46 | 12.32927 | -69.40989 | 39998 ft | 457 kts | 291° |
| 2026-05-07 16:46 | 12.34968 | -69.47145 | 39996 ft | 456 kts | 291° |
| 2026-05-07 16:47 | 12.37009 | -69.53304 | 39986 ft | 457 kts | 291° |
| 2026-05-07 16:47 | 12.39059 | -69.59493 | 40000 ft | 458 kts | 291° |
| 2026-05-07 16:48 | 12.41106 | -69.65682 | 40000 ft | 458 kts | 291° |
| 2026-05-07 16:48 | 12.43141 | -69.71835 | 40002 ft | 458 kts | 291° |
| 2026-05-07 16:49 | 12.45188 | -69.78032 | 40008 ft | 459 kts | 291° |
| 2026-05-07 16:49 | 12.47237 | -69.84235 | 40007 ft | 458 kts | 291° |
| 2026-05-07 16:50 | 12.49637 | -69.90278 | 40009 ft | 457 kts | 298° |
| 2026-05-07 16:50 | 12.52632 | -69.95967 | 40010 ft | 455 kts | 304° |
| 2026-05-07 16:51 | 12.56218 | -70.01305 | 40011 ft | 454 kts | 309° |
| 2026-05-07 16:51 | 12.60215 | -70.06333 | 40011 ft | 455 kts | 311° |
| 2026-05-07 16:52 | 12.64244 | -70.11328 | 40006 ft | 455 kts | 311° |
| 2026-05-07 16:52 | 12.68276 | -70.16331 | 39992 ft | 455 kts | 311° |
| 2026-05-07 16:53 | 12.72282 | -70.21308 | 39980 ft | 455 kts | 311° |
| 2026-05-07 16:53 | 12.76313 | -70.26324 | 39991 ft | 454 kts | 311° |
| 2026-05-07 16:54 | 12.80333 | -70.31319 | 39992 ft | 455 kts | 311° |
| 2026-05-07 16:54 | 12.84359 | -70.36335 | 39987 ft | 455 kts | 311° |
| 2026-05-07 16:55 | 12.88404 | -70.41372 | 39996 ft | 457 kts | 311° |
| 2026-05-07 16:55 | 12.92432 | -70.46396 | 39995 ft | 455 kts | 311° |
| 2026-05-07 16:56 | 12.96436 | -70.51386 | 39992 ft | 455 kts | 311° |
| 2026-05-07 16:56 | 13.02470 | -70.58917 | 39990 ft | 457 kts | 311° |
| 2026-05-07 16:57 | 13.06500 | -70.63964 | 39992 ft | 457 kts | 311° |
| 2026-05-07 16:57 | 13.10543 | -70.69027 | 40000 ft | 458 kts | 311° |
| 2026-05-07 16:58 | 13.14576 | -70.74084 | 39995 ft | 456 kts | 311° |
| 2026-05-07 16:58 | 13.18576 | -70.79090 | 39994 ft | 455 kts | 311° |
| 2026-05-07 16:59 | 13.22597 | -70.84123 | 39995 ft | 456 kts | 311° |
| 2026-05-07 16:59 | 13.26617 | -70.89163 | 39986 ft | 456 kts | 311° |
| 2026-05-07 17:00 | 13.29964 | -70.93365 | 39992 ft | 456 kts | 311° |
| 2026-05-07 17:00 | 13.34000 | -70.98428 | 39998 ft | 456 kts | 311° |
| 2026-05-07 17:01 | 13.38028 | -71.03486 | 39995 ft | 456 kts | 311° |
| 2026-05-07 17:01 | 13.42032 | -71.08543 | 39992 ft | 456 kts | 311° |
| 2026-05-07 17:02 | 13.46038 | -71.13614 | 39994 ft | 456 kts | 311° |
| 2026-05-07 17:02 | 13.50044 | -71.18686 | 40003 ft | 456 kts | 311° |
| 2026-05-07 17:03 | 13.54037 | -71.23746 | 39995 ft | 455 kts | 311° |
| 2026-05-07 17:03 | 13.58027 | -71.28801 | 39994 ft | 455 kts | 311° |
| 2026-05-07 17:04 | 13.61993 | -71.33829 | 39994 ft | 454 kts | 311° |
| 2026-05-07 17:04 | 13.65985 | -71.38892 | 39996 ft | 454 kts | 311° |
| 2026-05-07 17:05 | 13.69969 | -71.43949 | 40003 ft | 455 kts | 311° |
| 2026-05-07 17:05 | 13.73958 | -71.49014 | 40000 ft | 455 kts | 311° |
| 2026-05-07 17:06 | 13.77946 | -71.54081 | 39996 ft | 454 kts | 311° |
| 2026-05-07 17:06 | 13.81895 | -71.59105 | 39996 ft | 453 kts | 311° |
| 2026-05-07 17:07 | 13.85852 | -71.64139 | 39999 ft | 451 kts | 311° |
| 2026-05-07 17:07 | 13.89808 | -71.69173 | 39996 ft | 451 kts | 311° |
| 2026-05-07 17:08 | 13.93761 | -71.74208 | 39999 ft | 451 kts | 311° |
| 2026-05-07 17:08 | 13.97712 | -71.79244 | 40002 ft | 451 kts | 311° |
| 2026-05-07 17:09 | 14.01658 | -71.84275 | 39999 ft | 451 kts | 311° |
| 2026-05-07 17:09 | 14.05603 | -71.89309 | 40000 ft | 451 kts | 311° |
| 2026-05-07 17:10 | 14.09557 | -71.94356 | 39995 ft | 453 kts | 311° |
| 2026-05-07 17:10 | 14.13519 | -71.99417 | 39994 ft | 453 kts | 311° |
| 2026-05-07 17:11 | 14.17453 | -72.04447 | 40001 ft | 453 kts | 311° |
| 2026-05-07 17:11 | 14.21409 | -72.09507 | 39998 ft | 453 kts | 311° |
| 2026-05-07 17:12 | 14.25369 | -72.14574 | 40009 ft | 452 kts | 311° |
| 2026-05-07 17:12 | 14.29320 | -72.19632 | 40004 ft | 452 kts | 311° |
| 2026-05-07 17:13 | 14.33245 | -72.24661 | 40002 ft | 452 kts | 311° |
| 2026-05-07 17:13 | 14.37163 | -72.29753 | 40003 ft | 453 kts | 310° |
| 2026-05-07 17:14 | 14.41078 | -72.34866 | 40007 ft | 454 kts | 310° |
| 2026-05-07 17:14 | 14.45001 | -72.39986 | 40009 ft | 454 kts | 310° |
| 2026-05-07 17:15 | 14.48925 | -72.45104 | 40005 ft | 454 kts | 310° |
| 2026-05-07 17:15 | 14.52841 | -72.50217 | 40005 ft | 454 kts | 310° |
| 2026-05-07 17:16 | 14.56744 | -72.55294 | 40007 ft | 454 kts | 311° |
| 2026-05-07 17:16 | 14.60707 | -72.60379 | 40003 ft | 453 kts | 311° |
| 2026-05-07 17:17 | 14.64675 | -72.65468 | 40007 ft | 455 kts | 311° |
| 2026-05-07 17:17 | 14.68643 | -72.70566 | 40005 ft | 455 kts | 311° |
| 2026-05-07 17:18 | 14.72610 | -72.75667 | 40008 ft | 455 kts | 311° |
| 2026-05-07 17:18 | 14.76577 | -72.80771 | 40009 ft | 455 kts | 311° |
| 2026-05-07 17:19 | 14.80543 | -72.85878 | 40007 ft | 455 kts | 311° |
| 2026-05-07 17:19 | 14.84508 | -72.90986 | 40007 ft | 455 kts | 311° |
| 2026-05-07 17:20 | 14.88447 | -72.96064 | 40005 ft | 455 kts | 310° |
| 2026-05-07 17:20 | 14.92415 | -73.01182 | 40012 ft | 456 kts | 310° |
| 2026-05-07 17:21 | 14.96384 | -73.06305 | 40014 ft | 456 kts | 310° |
| 2026-05-07 17:21 | 15.00355 | -73.11434 | 40019 ft | 456 kts | 310° |
| 2026-05-07 17:22 | 15.04323 | -73.16560 | 40014 ft | 456 kts | 310° |
| 2026-05-07 17:22 | 15.08264 | -73.21658 | 40014 ft | 456 kts | 310° |
| 2026-05-07 17:23 | 15.12224 | -73.26797 | 40012 ft | 456 kts | 310° |
| 2026-05-07 17:23 | 15.16190 | -73.31946 | 40016 ft | 456 kts | 310° |
| 2026-05-07 17:24 | 15.20149 | -73.37089 | 40016 ft | 456 kts | 310° |
| 2026-05-07 17:24 | 15.24111 | -73.42239 | 40016 ft | 456 kts | 310° |
| 2026-05-07 17:25 | 15.28066 | -73.47381 | 40015 ft | 456 kts | 310° |
| 2026-05-07 17:25 | 15.31995 | -73.52494 | 40019 ft | 456 kts | 310° |
| 2026-05-07 17:26 | 15.35955 | -73.57649 | 40017 ft | 456 kts | 310° |
| 2026-05-07 17:26 | 15.39912 | -73.62805 | 40019 ft | 457 kts | 310° |
| 2026-05-07 17:27 | 15.43876 | -73.67974 | 40018 ft | 456 kts | 310° |
| 2026-05-07 17:27 | 15.47833 | -73.73133 | 40018 ft | 457 kts | 310° |
| 2026-05-07 17:28 | 15.51790 | -73.78300 | 40017 ft | 457 kts | 310° |
| 2026-05-07 17:28 | 15.55724 | -73.83439 | 40018 ft | 457 kts | 310° |
| 2026-05-07 17:29 | 15.59679 | -73.88609 | 40018 ft | 457 kts | 310° |
| 2026-05-07 17:29 | 15.63632 | -73.93779 | 40021 ft | 456 kts | 310° |
| 2026-05-07 17:30 | 15.67581 | -73.98945 | 40024 ft | 457 kts | 310° |
| 2026-05-07 17:30 | 15.71672 | -74.04002 | 40021 ft | 456 kts | 312° |
| 2026-05-07 17:31 | 15.75801 | -74.09015 | 40031 ft | 456 kts | 312° |
| 2026-05-07 17:31 | 15.79932 | -74.14030 | 40028 ft | 456 kts | 312° |
| 2026-05-07 17:32 | 15.84058 | -74.19041 | 40026 ft | 456 kts | 312° |
| 2026-05-07 17:32 | 15.87494 | -74.23219 | 40025 ft | 456 kts | 312° |
| 2026-05-07 17:33 | 15.92302 | -74.29070 | 40027 ft | 456 kts | 312° |
| 2026-05-07 17:33 | 15.96432 | -74.34101 | 40026 ft | 456 kts | 312° |
| 2026-05-07 17:34 | 16.00552 | -74.39120 | 40025 ft | 456 kts | 312° |
| 2026-05-07 17:34 | 16.04653 | -74.44121 | 40025 ft | 457 kts | 312° |
| 2026-05-07 17:35 | 16.08785 | -74.49164 | 40030 ft | 457 kts | 312° |
| 2026-05-07 17:35 | 16.12909 | -74.54202 | 40036 ft | 457 kts | 312° |
| 2026-05-07 17:36 | 16.17036 | -74.59244 | 40032 ft | 456 kts | 312° |
| 2026-05-07 17:36 | 16.21154 | -74.64279 | 40030 ft | 457 kts | 312° |
| 2026-05-07 17:37 | 16.25280 | -74.69328 | 40034 ft | 457 kts | 312° |
| 2026-05-07 17:37 | 16.29377 | -74.74347 | 40032 ft | 457 kts | 312° |
| 2026-05-07 17:38 | 16.33493 | -74.79392 | 40032 ft | 456 kts | 312° |
| 2026-05-07 17:38 | 16.37608 | -74.84438 | 40034 ft | 457 kts | 311° |
| 2026-05-07 17:39 | 16.41729 | -74.89495 | 40033 ft | 457 kts | 312° |
| 2026-05-07 17:39 | 16.45846 | -74.94551 | 40036 ft | 457 kts | 312° |
| 2026-05-07 17:40 | 16.49930 | -74.99573 | 40035 ft | 456 kts | 312° |
| 2026-05-07 17:40 | 16.54042 | -75.04627 | 40036 ft | 456 kts | 311° |
| 2026-05-07 17:41 | 16.58160 | -75.09693 | 40036 ft | 458 kts | 311° |
| 2026-05-07 17:41 | 16.62278 | -75.14768 | 40034 ft | 457 kts | 311° |
| 2026-05-07 17:42 | 16.66387 | -75.19834 | 40042 ft | 456 kts | 311° |
| 2026-05-07 17:42 | 16.70469 | -75.24869 | 40038 ft | 457 kts | 311° |
| 2026-05-07 17:43 | 16.74582 | -75.29944 | 40041 ft | 458 kts | 311° |
| 2026-05-07 17:43 | 16.78693 | -75.35024 | 40040 ft | 457 kts | 311° |
| 2026-05-07 17:44 | 16.82792 | -75.40093 | 40042 ft | 456 kts | 311° |
| 2026-05-07 17:44 | 16.86900 | -75.45171 | 40042 ft | 457 kts | 311° |
| 2026-05-07 17:45 | 16.91010 | -75.50258 | 40042 ft | 458 kts | 311° |
| 2026-05-07 17:45 | 16.95118 | -75.55350 | 40043 ft | 458 kts | 311° |
| 2026-05-07 17:46 | 16.99218 | -75.60437 | 40042 ft | 456 kts | 311° |
| 2026-05-07 17:46 | 17.03289 | -75.65487 | 40042 ft | 457 kts | 311° |
| 2026-05-07 17:47 | 17.07398 | -75.70586 | 40044 ft | 459 kts | 311° |
| 2026-05-07 17:47 | 17.11504 | -75.75691 | 40047 ft | 458 kts | 311° |
| 2026-05-07 17:48 | 17.14908 | -75.79923 | 40047 ft | 457 kts | 311° |
| 2026-05-07 17:48 | 17.19006 | -75.85021 | 40050 ft | 457 kts | 311° |
| 2026-05-07 17:49 | 17.23103 | -75.90122 | 40046 ft | 458 kts | 311° |
| 2026-05-07 17:49 | 17.27204 | -75.95237 | 40045 ft | 458 kts | 311° |
| 2026-05-07 17:50 | 17.31306 | -76.00354 | 40049 ft | 457 kts | 311° |
| 2026-05-07 17:50 | 17.35403 | -76.05465 | 40048 ft | 458 kts | 311° |
| 2026-05-07 17:51 | 17.39500 | -76.10583 | 40048 ft | 458 kts | 311° |
| 2026-05-07 17:51 | 17.43596 | -76.15702 | 40042 ft | 458 kts | 311° |
| 2026-05-07 17:52 | 17.47660 | -76.20787 | 40048 ft | 457 kts | 311° |
| 2026-05-07 17:52 | 17.51752 | -76.25909 | 40040 ft | 458 kts | 311° |
| 2026-05-07 17:53 | 17.55846 | -76.31037 | 40045 ft | 459 kts | 311° |
| 2026-05-07 17:53 | 17.59941 | -76.36172 | 40040 ft | 458 kts | 311° |
| 2026-05-07 17:54 | 17.64027 | -76.41300 | 40038 ft | 458 kts | 311° |
| 2026-05-07 17:54 | 17.68114 | -76.46433 | 40041 ft | 458 kts | 311° |
| 2026-05-07 17:55 | 17.72201 | -76.51567 | 40037 ft | 459 kts | 311° |
| 2026-05-07 17:55 | 17.76281 | -76.56700 | 40040 ft | 457 kts | 311° |
| 2026-05-07 17:56 | 17.80355 | -76.61829 | 40039 ft | 456 kts | 311° |
| 2026-05-07 17:56 | 17.84407 | -76.66930 | 40039 ft | 457 kts | 311° |
| 2026-05-07 17:57 | 17.87820 | -76.71232 | 40042 ft | 457 kts | 311° |
| 2026-05-07 17:57 | 17.92348 | -76.77380 | 40038 ft | 458 kts | 306° |
| 2026-05-07 17:58 | 17.95676 | -76.83112 | 40040 ft | 459 kts | 300° |
| 2026-05-07 17:58 | 17.98985 | -76.88831 | 40035 ft | 457 kts | 307° |
| 2026-05-07 17:59 | 18.02778 | -76.94209 | 40037 ft | 457 kts | 308° |
| 2026-05-07 17:59 | 18.06545 | -76.99545 | 40038 ft | 457 kts | 308° |
| 2026-05-07 18:00 | 18.10321 | -77.04936 | 40039 ft | 458 kts | 308° |
| 2026-05-07 18:00 | 18.14087 | -77.10341 | 40049 ft | 457 kts | 308° |
| 2026-05-07 18:01 | 18.17852 | -77.15752 | 40047 ft | 457 kts | 308° |
| 2026-05-07 18:01 | 18.21613 | -77.21164 | 40045 ft | 457 kts | 308° |
| 2026-05-07 18:02 | 18.27241 | -77.29270 | 40048 ft | 457 kts | 307° |
| 2026-05-07 18:03 | 18.30971 | -77.34650 | 40051 ft | 458 kts | 307° |
| 2026-05-07 18:03 | 18.34720 | -77.40066 | 40051 ft | 456 kts | 307° |
| 2026-05-07 18:04 | 18.38468 | -77.45477 | 40052 ft | 457 kts | 307° |
| 2026-05-07 18:04 | 18.42215 | -77.50897 | 40050 ft | 457 kts | 307° |
| 2026-05-07 18:05 | 18.45970 | -77.56332 | 40050 ft | 457 kts | 307° |
| 2026-05-07 18:05 | 18.49717 | -77.61757 | 40051 ft | 458 kts | 307° |
| 2026-05-07 18:06 | 18.53438 | -77.67152 | 40043 ft | 458 kts | 307° |
| 2026-05-07 18:06 | 18.57190 | -77.72599 | 40043 ft | 458 kts | 307° |
| 2026-05-07 18:07 | 18.60935 | -77.78038 | 40046 ft | 458 kts | 307° |
| 2026-05-07 18:07 | 18.64684 | -77.83487 | 40021 ft | 458 kts | 307° |
| 2026-05-07 18:08 | 18.68437 | -77.88947 | 40023 ft | 458 kts | 307° |
| 2026-05-07 18:08 | 18.72152 | -77.94357 | 40027 ft | 458 kts | 307° |
| 2026-05-07 18:09 | 18.75893 | -77.99804 | 40036 ft | 457 kts | 307° |
| 2026-05-07 18:09 | 18.79629 | -78.05255 | 40044 ft | 458 kts | 307° |
| 2026-05-07 18:10 | 18.83364 | -78.10708 | 40049 ft | 458 kts | 307° |
| 2026-05-07 18:10 | 18.87095 | -78.16160 | 40048 ft | 458 kts | 307° |
| 2026-05-07 18:11 | 18.90825 | -78.21614 | 40048 ft | 458 kts | 307° |
| 2026-05-07 18:11 | 18.94559 | -78.27078 | 40048 ft | 458 kts | 307° |
| 2026-05-07 18:12 | 18.98288 | -78.32541 | 40048 ft | 458 kts | 307° |
| 2026-05-07 18:12 | 19.01997 | -78.37979 | 40049 ft | 458 kts | 307° |
| 2026-05-07 18:13 | 19.05722 | -78.43444 | 40049 ft | 458 kts | 307° |
| 2026-05-07 18:13 | 19.09449 | -78.48919 | 40049 ft | 458 kts | 307° |
| 2026-05-07 18:14 | 19.13170 | -78.54389 | 40050 ft | 457 kts | 307° |
| 2026-05-07 18:14 | 19.16858 | -78.59815 | 40049 ft | 457 kts | 306° |
| 2026-05-07 18:15 | 19.20571 | -78.65283 | 40048 ft | 456 kts | 307° |
| 2026-05-07 18:15 | 19.24281 | -78.70748 | 40045 ft | 457 kts | 306° |
| 2026-05-07 18:16 | 19.27997 | -78.76229 | 40050 ft | 457 kts | 306° |
| 2026-05-07 18:16 | 19.31680 | -78.81669 | 40049 ft | 457 kts | 306° |
| 2026-05-07 18:17 | 19.35388 | -78.87149 | 40052 ft | 457 kts | 306° |
| 2026-05-07 18:17 | 19.39093 | -78.92630 | 40052 ft | 457 kts | 306° |
| 2026-05-07 18:17 | 19.40938 | -78.95328 | 40040 ft | 445 kts | 308° |
| 2026-05-07 18:18 | 19.42843 | -78.97848 | 40037 ft | 430 kts | 311° |
| 2026-05-07 18:18 | 19.44799 | -79.00176 | 40036 ft | 418 kts | 313° |
| 2026-05-07 18:18 | 19.46763 | -79.02436 | 40051 ft | 415 kts | 313° |
| 2026-05-07 18:19 | 19.50681 | -79.06929 | 40052 ft | 414 kts | 313° |
| 2026-05-07 18:19 | 19.54573 | -79.11397 | 40052 ft | 414 kts | 313° |
| 2026-05-07 18:20 | 19.58481 | -79.15891 | 40054 ft | 414 kts | 313° |
| 2026-05-07 18:20 | 19.62390 | -79.20390 | 40054 ft | 414 kts | 313° |
| 2026-05-07 18:21 | 19.66299 | -79.24893 | 40053 ft | 414 kts | 313° |
| 2026-05-07 18:21 | 19.70184 | -79.29373 | 40054 ft | 414 kts | 313° |
| 2026-05-07 18:22 | 19.74091 | -79.33880 | 40054 ft | 414 kts | 313° |
| 2026-05-07 18:22 | 19.77987 | -79.38378 | 40053 ft | 414 kts | 313° |
| 2026-05-07 18:23 | 19.81889 | -79.42887 | 40055 ft | 414 kts | 313° |
| 2026-05-07 18:23 | 19.85779 | -79.47386 | 40055 ft | 413 kts | 313° |
| 2026-05-07 18:24 | 19.89668 | -79.51886 | 40055 ft | 413 kts | 313° |
| 2026-05-07 18:24 | 19.93559 | -79.56392 | 40053 ft | 413 kts | 313° |
| 2026-05-07 18:25 | 19.97425 | -79.60874 | 40055 ft | 413 kts | 313° |
| 2026-05-07 18:25 | 20.01310 | -79.65379 | 40055 ft | 413 kts | 313° |
| 2026-05-07 18:26 | 20.05206 | -79.69889 | 40055 ft | 413 kts | 313° |
| 2026-05-07 18:26 | 20.09094 | -79.74394 | 40057 ft | 413 kts | 313° |
| 2026-05-07 18:27 | 20.12985 | -79.78906 | 40057 ft | 413 kts | 313° |
| 2026-05-07 18:27 | 20.16867 | -79.83412 | 40056 ft | 412 kts | 313° |
| 2026-05-07 18:28 | 20.20746 | -79.87918 | 40056 ft | 412 kts | 313° |
| 2026-05-07 18:28 | 20.24621 | -79.92423 | 40057 ft | 412 kts | 313° |
| 2026-05-07 18:29 | 20.28471 | -79.96901 | 40058 ft | 412 kts | 313° |
| 2026-05-07 18:29 | 20.32347 | -80.01413 | 40057 ft | 412 kts | 313° |
| 2026-05-07 18:30 | 20.36220 | -80.05927 | 40060 ft | 412 kts | 313° |
| 2026-05-07 18:30 | 20.40097 | -80.10448 | 40060 ft | 412 kts | 313° |
| 2026-05-07 18:31 | 20.43965 | -80.14962 | 40059 ft | 412 kts | 313° |
| 2026-05-07 18:31 | 20.47809 | -80.19453 | 40055 ft | 411 kts | 313° |
| 2026-05-07 18:32 | 20.51673 | -80.23971 | 40056 ft | 411 kts | 313° |
| 2026-05-07 18:32 | 20.55513 | -80.28501 | 40059 ft | 411 kts | 313° |
| 2026-05-07 18:33 | 20.59350 | -80.33039 | 40054 ft | 411 kts | 313° |
| 2026-05-07 18:33 | 20.63163 | -80.37550 | 40058 ft | 411 kts | 313° |
| 2026-05-07 18:34 | 20.66993 | -80.42084 | 40061 ft | 411 kts | 313° |
| 2026-05-07 18:34 | 20.70823 | -80.46621 | 40055 ft | 411 kts | 313° |
| 2026-05-07 18:35 | 20.74007 | -80.50397 | 40058 ft | 411 kts | 313° |